createdAt,value
2022-08-14T00:03:29.412Z,56.73
2022-08-14T00:08:44.631Z,56.07
2022-08-14T00:13:43.169Z,56.63
2022-08-14T00:19:05.535Z,56.57
2022-08-14T00:23:57.554Z,57.30
2022-08-14T00:29:04.737Z,58.30
2022-08-14T00:34:36.990Z,58.25
2022-08-14T00:39:18.690Z,57.13
2022-08-14T00:44:31.973Z,57.33
2022-08-14T00:49:37.930Z,57.03
2022-08-14T00:54:40.613Z,56.15
2022-08-14T01:04:54.992Z,58.30
2022-08-14T01:10:05.143Z,57.17
2022-08-14T01:15:14.645Z,58.40
2022-08-14T01:20:39.448Z,57.17
2022-08-14T01:25:44.545Z,57.53
2022-08-14T01:30:54.308Z,55.10
2022-08-14T01:36:07.338Z,54.53
2022-08-14T01:41:14.931Z,53.10
2022-08-14T01:46:24.851Z,53.48
2022-08-14T01:51:32.101Z,52.98
2022-08-14T01:56:39.829Z,53.67
2022-08-14T02:01:57.835Z,53.23
2022-08-14T02:06:54.154Z,53.33
2022-08-14T02:11:59.914Z,53.07
2022-08-14T02:17:08.767Z,52.17
2022-08-14T02:22:14.146Z,54.00
2022-08-14T02:28:23.734Z,53.37
2022-08-14T02:32:36.497Z,53.45
2022-08-14T02:37:46.486Z,53.50
2022-08-14T02:42:54.303Z,52.70
2022-08-14T02:47:53.902Z,52.37
2022-08-14T02:53:02.891Z,53.13
2022-08-14T02:58:08.777Z,54.45
2022-08-14T03:03:16.179Z,54.47
2022-08-14T03:08:22.643Z,55.03
2022-08-14T03:13:31.674Z,54.58
2022-08-14T03:18:41.700Z,54.95
2022-08-14T03:23:49.560Z,53.53
2022-08-14T03:28:55.378Z,53.70
2022-08-14T03:34:03.745Z,52.37
2022-08-14T03:39:14.409Z,53.57
2022-08-14T03:45:20.110Z,53.97
2022-08-14T03:49:29.394Z,53.87
2022-08-14T03:54:34.693Z,54.90
2022-08-14T03:59:40.627Z,55.20
2022-08-14T04:04:47.430Z,55.40
2022-08-14T04:09:54.510Z,54.70
2022-08-14T04:15:01.287Z,55.23
2022-08-14T04:20:08.031Z,54.73
2022-08-14T04:25:14.738Z,54.90
2022-08-14T04:30:25.994Z,54.67
2022-08-14T04:35:26.643Z,55.63
2022-08-14T04:40:51.372Z,55.57
2022-08-14T04:45:59.766Z,55.70
2022-08-14T04:56:31.274Z,56.02
2022-08-14T05:01:22.328Z,56.97
2022-08-14T05:11:36.795Z,56.48
2022-08-14T05:16:42.532Z,56.63
2022-08-14T05:21:59.612Z,57.62
2022-08-14T05:26:55.379Z,57.30
2022-08-14T05:37:07.989Z,57.63
2022-08-14T05:42:22.176Z,57.17
2022-08-14T05:47:22.125Z,57.90
2022-08-14T05:52:38.729Z,58.17
2022-08-14T05:57:33.996Z,58.23
2022-08-14T06:02:39.439Z,58.07
2022-08-14T06:07:44.645Z,58.23
2022-08-14T06:12:55.641Z,58.33
2022-08-14T06:17:59.801Z,58.57
2022-08-14T06:23:05.990Z,57.95
2022-08-14T06:28:27.911Z,58.47
2022-08-14T06:35:04.335Z,60.20
2022-08-14T06:38:37.079Z,59.30
2022-08-14T06:43:45.386Z,58.80
2022-08-14T06:48:51.938Z,60.60
2022-08-14T06:54:00.358Z,59.43
2022-08-14T06:59:06.745Z,60.23
2022-08-14T07:04:32.581Z,60.87
2022-08-14T07:09:43.829Z,60.70
2022-08-14T07:14:45.678Z,61.47
2022-08-14T07:19:50.849Z,61.20
2022-08-14T07:24:56.823Z,60.92
2022-08-14T07:30:05.718Z,60.63
2022-08-14T07:35:12.579Z,60.47
2022-08-14T07:40:20.243Z,60.60
2022-08-14T07:45:25.601Z,61.40
2022-08-14T07:50:34.758Z,59.63
2022-08-14T07:55:40.430Z,58.52
2022-08-14T08:00:46.703Z,59.80
2022-08-14T08:05:53.695Z,58.68
2022-08-14T08:11:03.002Z,58.83
2022-08-14T08:16:08.115Z,59.30
2022-08-14T08:21:13.700Z,59.03
2022-08-14T08:26:20.835Z,59.25
2022-08-14T08:31:32.947Z,58.33
2022-08-14T08:36:42.016Z,58.73
2022-08-14T08:41:53.138Z,58.67
2022-08-14T08:47:03.517Z,59.07
2022-08-14T08:52:24.603Z,60.07
2022-08-14T08:57:18.443Z,58.90
2022-08-14T09:02:25.859Z,57.97
2022-08-14T09:07:31.406Z,59.70
2022-08-14T09:12:36.897Z,59.65
2022-08-14T09:17:44.125Z,60.30
2022-08-14T09:22:52.782Z,58.87
2022-08-14T09:27:59.396Z,60.60
2022-08-14T09:38:27.336Z,58.90
2022-08-14T09:43:35.708Z,56.00
2022-08-14T09:48:41.020Z,56.77
2022-08-14T09:54:18.812Z,57.17
2022-08-14T09:59:01.118Z,57.45
2022-08-14T10:04:26.978Z,57.55
2022-08-14T10:09:17.267Z,57.35
2022-08-14T10:14:29.438Z,57.05
2022-08-14T10:19:37.201Z,58.40
2022-08-14T10:24:51.054Z,56.93
2022-08-14T10:30:00.168Z,56.83
2022-08-14T10:35:14.019Z,56.88
2022-08-14T10:40:38.409Z,56.50
2022-08-14T10:45:46.358Z,55.90
2022-08-14T10:51:03.322Z,56.50
2022-08-14T10:56:21.561Z,56.98
2022-08-14T11:01:29.200Z,56.70
2022-08-14T11:06:35.986Z,56.33
2022-08-14T11:11:46.537Z,57.00
2022-08-14T11:16:53.553Z,55.33
2022-08-14T11:22:01.260Z,55.35
2022-08-14T11:27:06.738Z,55.40
2022-08-14T11:32:11.904Z,55.30
2022-08-14T11:37:20.741Z,55.33
2022-08-14T11:42:57.774Z,55.75
2022-08-14T11:47:44.170Z,55.67
2022-08-14T11:52:42.869Z,56.10
2022-08-14T12:03:02.901Z,55.80
2022-08-14T12:08:13.373Z,56.03
2022-08-14T12:13:20.102Z,56.20
2022-08-14T12:18:35.909Z,56.60
2022-08-14T12:23:42.189Z,56.53
2022-08-14T12:28:59.472Z,56.87
2022-08-14T12:34:10.252Z,56.23
2022-08-14T12:39:21.444Z,56.07
2022-08-14T12:44:43.137Z,57.73
2022-08-14T12:49:57.841Z,56.53
2022-08-14T12:55:07.067Z,56.80
2022-08-14T13:00:22.998Z,56.43
2022-08-14T13:05:31.459Z,55.75
2022-08-14T13:10:47.700Z,56.10
2022-08-14T13:15:46.250Z,56.15
2022-08-14T13:20:57.872Z,56.20
2022-08-14T13:26:01.090Z,56.27
2022-08-14T13:31:11.898Z,56.10
2022-08-14T13:36:23.889Z,56.37
2022-08-14T13:41:36.154Z,56.02
2022-08-14T13:46:33.421Z,56.23
2022-08-14T13:51:47.541Z,56.10
2022-08-14T13:56:55.153Z,56.87
2022-08-14T14:02:05.057Z,56.83
2022-08-14T14:07:14.515Z,56.53
2022-08-14T14:12:38.198Z,54.93
2022-08-14T14:17:31.490Z,55.70
2022-08-14T14:23:02.237Z,54.60
2022-08-14T14:27:47.993Z,55.63
2022-08-14T14:33:04.394Z,54.93
2022-08-14T14:38:08.781Z,55.60
2022-08-14T14:43:15.603Z,56.17
2022-08-14T14:48:21.640Z,56.35
2022-08-14T14:53:39.225Z,56.53
2022-08-14T14:58:43.401Z,56.90
2022-08-14T15:03:53.546Z,56.73
2022-08-14T15:09:00.558Z,55.63
2022-08-14T15:14:56.030Z,55.20
2022-08-14T15:19:14.464Z,56.27
2022-08-14T15:24:26.782Z,54.87
2022-08-14T15:29:27.115Z,54.87
2022-08-14T15:34:43.804Z,55.70
2022-08-14T15:39:41.395Z,55.40
2022-08-14T15:44:56.854Z,55.17
2022-08-14T15:49:59.179Z,54.50
2022-08-14T15:55:08.957Z,55.35
2022-08-14T16:00:43.449Z,55.77
2022-08-14T16:05:41.111Z,56.60
2022-08-14T16:10:47.722Z,55.27
2022-08-14T16:21:02.913Z,55.45
2022-08-14T16:26:09.262Z,55.35
2022-08-14T16:31:16.186Z,55.03
2022-08-14T16:36:31.626Z,55.45
2022-08-14T16:41:33.154Z,54.83
2022-08-14T16:46:44.069Z,54.40
2022-08-14T16:51:52.810Z,55.30
2022-08-14T16:57:16.391Z,54.67
2022-08-14T17:02:43.748Z,54.20
2022-08-14T17:08:33.052Z,55.28
2022-08-14T17:13:20.486Z,54.72
2022-08-14T17:18:55.518Z,54.27
2022-08-14T17:24:55.881Z,54.53
2022-08-14T17:29:18.370Z,55.30
2022-08-14T17:34:25.501Z,55.83
2022-08-14T17:39:40.127Z,56.17
2022-08-14T17:44:44.888Z,56.13
2022-08-14T17:49:54.106Z,56.27
2022-08-14T17:55:01.561Z,54.33
2022-08-14T18:00:12.100Z,54.83
2022-08-14T18:05:18.194Z,58.00
2022-08-14T18:10:52.465Z,55.85
2022-08-14T18:15:37.163Z,55.33
2022-08-14T18:21:42.569Z,54.73
2022-08-14T18:25:54.474Z,60.83
2022-08-14T18:31:23.304Z,55.57
2022-08-14T18:36:47.572Z,55.13
2022-08-14T18:41:54.694Z,55.13
2022-08-14T18:47:16.003Z,55.20
2022-08-14T18:52:42.552Z,54.83
2022-08-14T18:57:59.470Z,55.17
2022-08-14T19:03:11.250Z,55.90
2022-08-14T19:08:26.997Z,55.20
2022-08-14T19:13:48.219Z,55.70
2022-08-14T19:19:00.523Z,55.40
2022-08-14T19:24:27.416Z,55.60
2022-08-14T19:29:37.466Z,53.30
2022-08-14T19:34:52.275Z,54.97
2022-08-14T19:39:57.137Z,56.13
2022-08-14T19:45:05.154Z,55.55
2022-08-14T19:50:38.157Z,55.70
2022-08-14T19:55:21.248Z,55.75
2022-08-14T20:00:30.331Z,56.77
2022-08-14T20:05:43.076Z,55.27
2022-08-14T20:11:04.710Z,54.70
2022-08-14T20:15:55.633Z,54.48
2022-08-14T20:21:08.098Z,54.20
2022-08-14T20:26:30.817Z,55.05
2022-08-14T20:31:37.318Z,55.27
2022-08-14T20:36:41.521Z,56.43
2022-08-14T20:41:51.536Z,56.10
2022-08-14T20:47:01.844Z,55.20
2022-08-14T20:52:19.290Z,56.10
2022-08-14T20:57:19.325Z,53.33
2022-08-14T21:02:50.501Z,53.53
2022-08-14T21:07:51.345Z,55.93
2022-08-14T21:13:25.628Z,57.23
2022-08-14T21:18:05.184Z,56.63
2022-08-14T21:23:14.597Z,56.58
2022-08-14T21:28:30.154Z,56.23
2022-08-14T21:33:26.854Z,56.77
2022-08-14T21:38:34.593Z,57.33
2022-08-14T21:43:40.079Z,56.15
2022-08-14T21:48:45.588Z,56.20
2022-08-14T21:53:58.109Z,57.23
2022-08-14T21:59:04.535Z,56.83
2022-08-14T22:04:33.427Z,57.53
2022-08-14T22:09:21.675Z,56.90
2022-08-14T22:14:27.682Z,56.40
2022-08-14T22:24:53.821Z,55.50
2022-08-14T22:29:54.979Z,55.60
2022-08-14T22:34:56.630Z,56.03
2022-08-14T22:40:55.008Z,55.65
2022-08-14T22:45:10.842Z,55.40
2022-08-14T22:50:31.284Z,55.75
2022-08-14T22:55:27.881Z,55.05
2022-08-14T23:00:33.722Z,54.70
2022-08-14T23:05:52.867Z,53.13
2022-08-14T23:10:47.655Z,54.73
2022-08-14T23:15:54.938Z,53.73
2022-08-14T23:21:00.017Z,54.53
2022-08-14T23:26:48.304Z,55.00
2022-08-14T23:31:35.031Z,54.83
2022-08-14T23:36:31.620Z,53.67
2022-08-14T23:41:46.873Z,54.13
2022-08-14T23:46:44.455Z,54.03
2022-08-14T23:51:59.593Z,54.03
2022-08-14T23:57:03.194Z,54.10
